sensor_id;sensor_type;location;lat;lon;timestamp;pressure;altitude;pressure_sealevel;temperature;humidity
32324;BME280;25666;44.350;9.222;2023-02-04T00:00:47;102464.56;;;9.03;100.00
32324;BME280;25666;44.350;9.222;2023-02-04T00:03:13;102467.72;;;8.96;100.00
32324;BME280;25666;44.350;9.222;2023-02-04T00:05:40;102467.66;;;9.01;100.00
32324;BME280;25666;44.350;9.222;2023-02-04T00:08:06;102467.06;;;9.04;100.00
32324;BME280;25666;44.350;9.222;2023-02-04T00:10:32;102468.09;;;9.08;100.00
32324;BME280;25666;44.350;9.222;2023-02-04T00:12:58;102473.66;;;9.08;100.00
32324;BME280;25666;44.350;9.222;2023-02-04T00:15:26;102477.25;;;9.09;100.00
32324;BME280;25666;44.350;9.222;2023-02-04T00:17:51;102460.78;;;9.18;100.00
32324;BME280;25666;44.350;9.222;2023-02-04T00:20:17;102458.28;;;9.16;100.00
32324;BME280;25666;44.350;9.222;2023-02-04T00:22:44;102458.28;;;9.16;100.00
32324;BME280;25666;44.350;9.222;2023-02-04T00:25:09;102452.72;;;9.16;100.00
32324;BME280;25666;44.350;9.222;2023-02-04T00:27:35;102454.22;;;9.08;100.00
32324;BME280;25666;44.350;9.222;2023-02-04T00:30:01;102458.38;;;9.11;100.00
32324;BME280;25666;44.350;9.222;2023-02-04T00:32:27;102456.78;;;9.05;100.00
32324;BME280;25666;44.350;9.222;2023-02-04T00:34:53;102439.41;;;8.94;100.00
32324;BME280;25666;44.350;9.222;2023-02-04T00:37:18;102436.78;;;9.03;100.00
32324;BME280;25666;44.350;9.222;2023-02-04T00:39:44;102431.59;;;8.96;100.00
32324;BME280;25666;44.350;9.222;2023-02-04T00:42:09;102425.47;;;8.99;100.00
32324;BME280;25666;44.350;9.222;2023-02-04T00:44:35;102426.50;;;8.85;100.00
32324;BME280;25666;44.350;9.222;2023-02-04T00:47:01;102425.47;;;8.99;100.00
32324;BME280;25666;44.350;9.222;2023-02-04T00:49:28;102436.56;;;8.99;100.00
32324;BME280;25666;44.350;9.222;2023-02-04T00:51:55;102424.25;;;9.05;100.00
32324;BME280;25666;44.350;9.222;2023-02-04T00:54:20;102426.16;;;9.10;100.00
32324;BME280;25666;44.350;9.222;2023-02-04T00:56:45;102414.94;;;9.15;100.00
32324;BME280;25666;44.350;9.222;2023-02-04T00:59:11;102402.72;;;9.16;100.00
32324;BME280;25666;44.350;9.222;2023-02-04T01:01:37;102400.41;;;9.04;100.00
32324;BME280;25666;44.350;9.222;2023-02-04T01:04:02;102413.59;;;9.12;100.00
32324;BME280;25666;44.350;9.222;2023-02-04T01:06:28;102414.06;;;9.20;100.00
32324;BME280;25666;44.350;9.222;2023-02-04T01:08:54;102411.19;;;9.25;100.00
32324;BME280;25666;44.350;9.222;2023-02-04T01:11:21;102413.38;;;9.28;100.00
32324;BME280;25666;44.350;9.222;2023-02-04T01:13:47;102410.09;;;9.26;100.00
32324;BME280;25666;44.350;9.222;2023-02-04T01:16:13;102415.88;;;9.29;100.00
32324;BME280;25666;44.350;9.222;2023-02-04T01:18:38;102403.84;;;9.34;100.00
32324;BME280;25666;44.350;9.222;2023-02-04T01:21:04;102390.72;;;9.39;100.00
32324;BME280;25666;44.350;9.222;2023-02-04T01:23:30;102398.75;;;9.22;100.00
32324;BME280;25666;44.350;9.222;2023-02-04T01:25:56;102399.81;;;9.26;100.00
32324;BME280;25666;44.350;9.222;2023-02-04T01:28:22;102410.22;;;9.34;100.00
32324;BME280;25666;44.350;9.222;2023-02-04T01:30:47;102394.69;;;9.33;100.00
32324;BME280;25666;44.350;9.222;2023-02-04T01:33:13;102394.88;;;9.37;100.00
32324;BME280;25666;44.350;9.222;2023-02-04T01:35:41;102391.31;;;9.36;100.00
32324;BME280;25666;44.350;9.222;2023-02-04T01:38:06;102374.03;;;9.39;100.00
32324;BME280;25666;44.350;9.222;2023-02-04T01:40:35;102378.38;;;9.45;100.00
32324;BME280;25666;44.350;9.222;2023-02-04T01:43:01;102384.97;;;9.31;100.00
32324;BME280;25666;44.350;9.222;2023-02-04T01:45:26;102394.97;;;9.32;100.00
32324;BME280;25666;44.350;9.222;2023-02-04T01:47:55;102401.59;;;9.36;100.00
32324;BME280;25666;44.350;9.222;2023-02-04T01:50:21;102396.03;;;9.36;100.00
32324;BME280;25666;44.350;9.222;2023-02-04T01:52:46;102390.09;;;9.42;100.00
32324;BME280;25666;44.350;9.222;2023-02-04T01:55:14;102383.00;;;9.50;100.00
32324;BME280;25666;44.350;9.222;2023-02-04T01:57:40;102383.72;;;9.42;100.00
32324;BME280;25666;44.350;9.222;2023-02-04T02:00:14;102378.63;;;9.30;100.00
32324;BME280;25666;44.350;9.222;2023-02-04T02:05:16;102371.09;;;9.31;100.00
32324;BME280;25666;44.350;9.222;2023-02-04T02:07:42;102356.13;;;9.45;100.00
32324;BME280;25666;44.350;9.222;2023-02-04T02:10:10;102355.91;;;9.42;100.00
32324;BME280;25666;44.350;9.222;2023-02-04T02:12:36;102350.66;;;9.40;100.00
32324;BME280;25666;44.350;9.222;2023-02-04T02:15:03;102345.25;;;9.49;100.00
32324;BME280;25666;44.350;9.222;2023-02-04T02:17:28;102355.44;;;9.53;100.00
32324;BME280;25666;44.350;9.222;2023-02-04T02:19:54;102337.31;;;9.56;100.00
32324;BME280;25666;44.350;9.222;2023-02-04T02:23:03;102351.59;;;9.49;100.00
32324;BME280;25666;44.350;9.222;2023-02-04T02:25:12;102337.72;;;9.49;100.00
32324;BME280;25666;44.350;9.222;2023-02-04T02:27:39;102318.69;;;9.56;100.00
32324;BME280;25666;44.350;9.222;2023-02-04T02:30:05;102329.19;;;9.59;100.00
32324;BME280;25666;44.350;9.222;2023-02-04T02:32:34;102328.75;;;9.52;100.00
32324;BME280;25666;44.350;9.222;2023-02-04T02:35:00;102320.03;;;9.59;100.00
32324;BME280;25666;44.350;9.222;2023-02-04T02:37:27;102322.81;;;9.59;100.00
32324;BME280;25666;44.350;9.222;2023-02-04T02:39:52;102318.91;;;9.60;100.00
32324;BME280;25666;44.350;9.222;2023-02-04T02:42:18;102322.28;;;9.57;100.00
32324;BME280;25666;44.350;9.222;2023-02-04T02:44:45;102319.13;;;9.63;100.00
32324;BME280;25666;44.350;9.222;2023-02-04T02:47:14;102306.06;;;9.64;100.00
32324;BME280;25666;44.350;9.222;2023-02-04T02:49:40;102302.03;;;9.70;100.00
32324;BME280;25666;44.350;9.222;2023-02-04T02:52:09;102306.06;;;9.78;100.00
32324;BME280;25666;44.350;9.222;2023-02-04T02:54:35;102300.72;;;9.67;100.00
32324;BME280;25666;44.350;9.222;2023-02-04T02:57:11;102296.22;;;9.53;100.00
32324;BME280;25666;44.350;9.222;2023-02-04T02:59:37;102287.81;;;9.58;100.00
32324;BME280;25666;44.350;9.222;2023-02-04T03:02:06;102290.47;;;9.49;100.00
32324;BME280;25666;44.350;9.222;2023-02-04T03:04:37;102295.75;;;9.64;100.00
32324;BME280;25666;44.350;9.222;2023-02-04T03:07:06;102311.63;;;9.64;100.00
32324;BME280;25666;44.350;9.222;2023-02-04T03:09:33;102297.09;;;9.67;100.00
32324;BME280;25666;44.350;9.222;2023-02-04T03:11:59;102291.66;;;9.76;100.00
32324;BME280;25666;44.350;9.222;2023-02-04T03:14:25;102288.25;;;9.79;100.00
32324;BME280;25666;44.350;9.222;2023-02-04T03:16:53;102278.78;;;9.80;100.00
32324;BME280;25666;44.350;9.222;2023-02-04T03:19:20;102282.56;;;9.84;100.00
32324;BME280;25666;44.350;9.222;2023-02-04T03:21:47;102287.13;;;9.80;100.00
32324;BME280;25666;44.350;9.222;2023-02-04T03:24:13;102281.78;;;9.83;100.00
32324;BME280;25666;44.350;9.222;2023-02-04T03:26:38;102289.19;;;9.88;100.00
32324;BME280;25666;44.350;9.222;2023-02-04T03:29:08;102284.44;;;9.88;100.00
32324;BME280;25666;44.350;9.222;2023-02-04T03:31:34;102291.56;;;9.94;100.00
32324;BME280;25666;44.350;9.222;2023-02-04T03:33:59;102283.53;;;9.93;100.00
32324;BME280;25666;44.350;9.222;2023-02-04T03:36:25;102279.81;;;9.97;100.00
32324;BME280;25666;44.350;9.222;2023-02-04T03:38:50;102271.34;;;10.02;100.00
32324;BME280;25666;44.350;9.222;2023-02-04T03:41:18;102276.91;;;10.02;100.00
32324;BME280;25666;44.350;9.222;2023-02-04T03:43:43;102267.56;;;9.98;100.00
32324;BME280;25666;44.350;9.222;2023-02-04T03:46:09;102273.00;;;10.03;100.00
32324;BME280;25666;44.350;9.222;2023-02-04T03:48:34;102274.75;;;9.99;100.00
32324;BME280;25666;44.350;9.222;2023-02-04T03:51:00;102275.28;;;10.01;100.00
32324;BME280;25666;44.350;9.222;2023-02-04T03:53:25;102268.38;;;9.99;100.00
32324;BME280;25666;44.350;9.222;2023-02-04T03:55:51;102269.19;;;9.99;100.00
32324;BME280;25666;44.350;9.222;2023-02-04T03:58:16;102259.84;;;9.95;100.00
32324;BME280;25666;44.350;9.222;2023-02-04T04:00:42;102251.09;;;10.02;100.00
32324;BME280;25666;44.350;9.222;2023-02-04T04:03:07;102259.00;;;10.08;100.00
32324;BME280;25666;44.350;9.222;2023-02-04T04:05:33;102255.06;;;10.09;100.00
32324;BME280;25666;44.350;9.222;2023-02-04T04:07:58;102262.59;;;10.09;100.00
32324;BME280;25666;44.350;9.222;2023-02-04T04:10:24;102266.31;;;10.04;100.00
32324;BME280;25666;44.350;9.222;2023-02-04T04:12:49;102263.22;;;10.06;100.00
32324;BME280;25666;44.350;9.222;2023-02-04T04:15:15;102255.19;;;10.04;100.00
32324;BME280;25666;44.350;9.222;2023-02-04T04:17:40;102237.06;;;10.07;100.00
32324;BME280;25666;44.350;9.222;2023-02-04T04:20:06;102234.47;;;10.10;100.00
32324;BME280;25666;44.350;9.222;2023-02-04T04:22:32;102236.66;;;10.13;100.00
32324;BME280;25666;44.350;9.222;2023-02-04T04:24:58;102243.88;;;10.14;100.00
32324;BME280;25666;44.350;9.222;2023-02-04T04:27:23;102234.09;;;10.17;100.00
32324;BME280;25666;44.350;9.222;2023-02-04T04:29:50;102238.59;;;10.13;100.00
32324;BME280;25666;44.350;9.222;2023-02-04T04:32:15;102229.34;;;10.17;100.00
32324;BME280;25666;44.350;9.222;2023-02-04T04:34:41;102226.25;;;10.19;100.00
32324;BME280;25666;44.350;9.222;2023-02-04T04:37:06;102221.38;;;10.25;100.00
32324;BME280;25666;44.350;9.222;2023-02-04T04:39:32;102215.31;;;10.23;100.00
32324;BME280;25666;44.350;9.222;2023-02-04T04:41:57;102211.72;;;10.22;100.00
32324;BME280;25666;44.350;9.222;2023-02-04T04:44:23;102215.53;;;10.26;100.00
32324;BME280;25666;44.350;9.222;2023-02-04T04:46:48;102217.19;;;10.27;100.00
32324;BME280;25666;44.350;9.222;2023-02-04T04:49:17;102217.81;;;10.24;100.00
32324;BME280;25666;44.350;9.222;2023-02-04T04:51:42;102206.03;;;10.27;100.00
32324;BME280;25666;44.350;9.222;2023-02-04T04:54:07;102199.03;;;10.30;100.00
32324;BME280;25666;44.350;9.222;2023-02-04T04:56:33;102196.75;;;10.32;100.00
32324;BME280;25666;44.350;9.222;2023-02-04T04:58:58;102194.78;;;10.32;100.00
32324;BME280;25666;44.350;9.222;2023-02-04T05:01:24;102190.69;;;10.30;100.00
32324;BME280;25666;44.350;9.222;2023-02-04T05:03:50;102190.69;;;10.30;100.00
32324;BME280;25666;44.350;9.222;2023-02-04T05:06:15;102193.75;;;10.28;100.00
32324;BME280;25666;44.350;9.222;2023-02-04T05:08:41;102194.28;;;10.30;100.00
32324;BME280;25666;44.350;9.222;2023-02-04T05:11:06;102196.75;;;10.32;100.00
32324;BME280;25666;44.350;9.222;2023-02-04T05:13:32;102187.69;;;10.26;100.00
32324;BME280;25666;44.350;9.222;2023-02-04T05:15:57;102179.84;;;10.28;100.00
32324;BME280;25666;44.350;9.222;2023-02-04T05:18:23;102183.78;;;10.27;100.00
32324;BME280;25666;44.350;9.222;2023-02-04T05:20:48;102188.53;;;10.27;100.00
32324;BME280;25666;44.350;9.222;2023-02-04T05:23:14;102191.31;;;10.27;100.00
32324;BME280;25666;44.350;9.222;2023-02-04T05:25:43;102205.50;;;10.25;100.00
32324;BME280;25666;44.350;9.222;2023-02-04T05:28:09;102196.47;;;10.19;100.00
32324;BME280;25666;44.350;9.222;2023-02-04T05:30:34;102198.22;;;10.15;100.00
32324;BME280;25666;44.350;9.222;2023-02-04T05:33:00;102202.84;;;10.20;100.00
32324;BME280;25666;44.350;9.222;2023-02-04T05:35:25;102206.75;;;10.19;100.00
32324;BME280;25666;44.350;9.222;2023-02-04T05:37:51;102220.06;;;10.22;100.00
32324;BME280;25666;44.350;9.222;2023-02-04T05:40:16;102209.25;;;10.20;100.00
32324;BME280;25666;44.350;9.222;2023-02-04T05:42:42;102221.50;;;10.19;100.00
32324;BME280;25666;44.350;9.222;2023-02-04T05:45:13;102212.97;;;10.16;100.00
32324;BME280;25666;44.350;9.222;2023-02-04T05:47:39;102222.44;;;10.15;100.00
32324;BME280;25666;44.350;9.222;2023-02-04T05:50:04;102224.09;;;10.16;100.00
32324;BME280;25666;44.350;9.222;2023-02-04T05:52:30;102230.47;;;10.16;100.00
32324;BME280;25666;44.350;9.222;2023-02-04T05:54:56;102224.19;;;10.11;100.00
32324;BME280;25666;44.350;9.222;2023-02-04T05:57:21;102218.50;;;10.02;100.00
32324;BME280;25666;44.350;9.222;2023-02-04T05:59:46;102216.88;;;10.01;100.00
32324;BME280;25666;44.350;9.222;2023-02-04T06:02:12;102213.13;;;10.06;100.00
32324;BME280;25666;44.350;9.222;2023-02-04T06:04:37;102207.97;;;10.13;100.00
32324;BME280;25666;44.350;9.222;2023-02-04T06:07:03;102216.34;;;10.13;100.00
32324;BME280;25666;44.350;9.222;2023-02-04T06:09:28;102212.50;;;10.09;100.00
32324;BME280;25666;44.350;9.222;2023-02-04T06:11:54;102220.16;;;10.03;100.00
32324;BME280;25666;44.350;9.222;2023-02-04T06:14:19;102219.75;;;9.96;100.00
32324;BME280;25666;44.350;9.222;2023-02-04T06:16:45;102217.09;;;9.91;100.00
32324;BME280;25666;44.350;9.222;2023-02-04T06:19:10;102223.47;;;9.78;100.00
32324;BME280;25666;44.350;9.222;2023-02-04T06:21:36;102230.97;;;9.78;100.00
32324;BME280;25666;44.350;9.222;2023-02-04T06:24:01;102233.75;;;9.78;100.00
32324;BME280;25666;44.350;9.222;2023-02-04T06:26:27;102231.19;;;9.81;100.00
32324;BME280;25666;44.350;9.222;2023-02-04T06:28:52;102223.88;;;9.72;100.00
32324;BME280;25666;44.350;9.222;2023-02-04T06:31:17;102225.81;;;9.71;100.00
32324;BME280;25666;44.350;9.222;2023-02-04T06:33:43;102223.78;;;9.77;100.00
32324;BME280;25666;44.350;9.222;2023-02-04T06:36:08;102224.09;;;9.75;100.00
32324;BME280;25666;44.350;9.222;2023-02-04T06:38:34;102224.28;;;9.79;100.00
32324;BME280;25666;44.350;9.222;2023-02-04T06:40:59;102229.84;;;9.79;100.00
32324;BME280;25666;44.350;9.222;2023-02-04T06:43:25;102226.78;;;9.80;100.00
32324;BME280;25666;44.350;9.222;2023-02-04T06:45:51;102235.91;;;9.81;100.00
32324;BME280;25666;44.350;9.222;2023-02-04T06:48:17;102229.13;;;9.73;100.00
32324;BME280;25666;44.350;9.222;2023-02-04T06:50:42;102228.59;;;9.71;100.00
32324;BME280;25666;44.350;9.222;2023-02-04T06:53:08;102227.19;;;9.74;100.00
32324;BME280;25666;44.350;9.222;2023-02-04T06:55:33;102227.91;;;9.79;100.00
32324;BME280;25666;44.350;9.222;2023-02-04T06:57:59;102224.41;;;9.74;100.00
32324;BME280;25666;44.350;9.222;2023-02-04T07:00:24;102223.25;;;9.75;100.00
32324;BME280;25666;44.350;9.222;2023-02-04T07:02:50;102229.66;;;9.61;100.00
32324;BME280;25666;44.350;9.222;2023-02-04T07:05:15;102223.16;;;9.66;100.00
32324;BME280;25666;44.350;9.222;2023-02-04T07:07:41;102228.09;;;9.69;100.00
32324;BME280;25666;44.350;9.222;2023-02-04T07:10:06;102217.16;;;9.59;100.00
32324;BME280;25666;44.350;9.222;2023-02-04T07:12:32;102215.03;;;9.69;100.00
32324;BME280;25666;44.350;9.222;2023-02-04T07:14:57;102216.56;;;9.76;100.00
32324;BME280;25666;44.350;9.222;2023-02-04T07:17:22;102213.69;;;9.67;100.00
32324;BME280;25666;44.350;9.222;2023-02-04T07:19:48;102204.41;;;9.72;100.00
32324;BME280;25666;44.350;9.222;2023-02-04T07:22:13;102211.34;;;9.74;100.00
32324;BME280;25666;44.350;9.222;2023-02-04T07:24:39;102207.31;;;9.66;100.00
32324;BME280;25666;44.350;9.222;2023-02-04T07:27:05;102206.28;;;9.76;100.00
32324;BME280;25666;44.350;9.222;2023-02-04T07:29:30;102199.78;;;9.67;100.00
32324;BME280;25666;44.350;9.222;2023-02-04T07:31:55;102200.72;;;9.76;100.00
32324;BME280;25666;44.350;9.222;2023-02-04T07:34:21;102208.31;;;9.84;100.00
32324;BME280;25666;44.350;9.222;2023-02-04T07:36:47;102199.56;;;9.91;100.00
32324;BME280;25666;44.350;9.222;2023-02-04T07:39:12;102211.84;;;9.90;100.00
32324;BME280;25666;44.350;9.222;2023-02-04T07:41:37;102216.25;;;9.91;100.00
32324;BME280;25666;44.350;9.222;2023-02-04T07:44:03;102216.78;;;9.93;100.00
32324;BME280;25666;44.350;9.222;2023-02-04T07:46:29;102212.00;;;9.93;100.00
32324;BME280;25666;44.350;9.222;2023-02-04T07:48:54;102214.78;;;9.93;100.00
32324;BME280;25666;44.350;9.222;2023-02-04T07:51:20;102217.91;;;9.78;100.00
32324;BME280;25666;44.350;9.222;2023-02-04T07:53:45;102219.56;;;9.79;100.00
32324;BME280;25666;44.350;9.222;2023-02-04T07:56:11;102218.63;;;9.84;100.00
32324;BME280;25666;44.350;9.222;2023-02-04T07:58:37;102215.91;;;10.06;100.00
32324;BME280;25666;44.350;9.222;2023-02-04T08:01:02;102213.47;;;10.18;100.00
32324;BME280;25666;44.350;9.222;2023-02-04T08:03:28;102223.47;;;10.19;100.00
32324;BME280;25666;44.350;9.222;2023-02-04T08:05:53;102220.59;;;10.24;100.00
32324;BME280;25666;44.350;9.222;2023-02-04T08:08:19;102217.88;;;10.33;100.00
32324;BME280;25666;44.350;9.222;2023-02-04T08:10:45;102221.22;;;10.43;100.00
32324;BME280;25666;44.350;9.222;2023-02-04T08:13:10;102216.63;;;10.39;100.00
32324;BME280;25666;44.350;9.222;2023-02-04T08:15:36;102223.53;;;10.41;100.00
32324;BME280;25666;44.350;9.222;2023-02-04T08:18:01;102220.38;;;10.56;100.00
32324;BME280;25666;44.350;9.222;2023-02-04T08:20:27;102216.34;;;10.62;100.00
32324;BME280;25666;44.350;9.222;2023-02-04T08:22:52;102215.19;;;10.63;100.00
32324;BME280;25666;44.350;9.222;2023-02-04T08:25:18;102228.69;;;10.70;100.00
32324;BME280;25666;44.350;9.222;2023-02-04T08:27:43;102222.47;;;10.51;100.00
32324;BME280;25666;44.350;9.222;2023-02-04T08:30:09;102219.25;;;10.57;100.00
32324;BME280;25666;44.350;9.222;2023-02-04T08:32:35;102211.28;;;10.64;100.00
32324;BME280;25666;44.350;9.222;2023-02-04T08:35:00;102207.91;;;10.54;100.00
32324;BME280;25666;44.350;9.222;2023-02-04T08:37:26;102201.91;;;10.60;100.00
32324;BME280;25666;44.350;9.222;2023-02-04T08:39:52;102195.97;;;10.75;100.00
32324;BME280;25666;44.350;9.222;2023-02-04T08:42:17;102204.22;;;10.81;100.00
32324;BME280;25666;44.350;9.222;2023-02-04T08:44:43;102203.28;;;10.94;100.00
32324;BME280;25666;44.350;9.222;2023-02-04T08:47:09;102200.00;;;11.14;100.00
32324;BME280;25666;44.350;9.222;2023-02-04T08:49:35;102204.16;;;11.25;100.00
32324;BME280;25666;44.350;9.222;2023-02-04T08:52:02;102209.38;;;11.18;100.00
32324;BME280;25666;44.350;9.222;2023-02-04T08:54:29;102206.84;;;11.08;100.00
32324;BME280;25666;44.350;9.222;2023-02-04T08:56:54;102209.09;;;11.06;100.00
32324;BME280;25666;44.350;9.222;2023-02-04T08:59:20;102215.03;;;11.04;100.00
32324;BME280;25666;44.350;9.222;2023-02-04T09:01:48;102200.50;;;11.16;100.00
32324;BME280;25666;44.350;9.222;2023-02-04T09:04:17;102204.56;;;11.10;100.00
32324;BME280;25666;44.350;9.222;2023-02-04T09:06:44;102202.66;;;10.97;100.00
32324;BME280;25666;44.350;9.222;2023-02-04T09:09:09;102205.97;;;10.99;100.00
32324;BME280;25666;44.350;9.222;2023-02-04T09:11:35;102203.38;;;11.02;100.00
32324;BME280;25666;44.350;9.222;2023-02-04T09:14:00;102213.94;;;11.14;100.00
32324;BME280;25666;44.350;9.222;2023-02-04T09:16:26;102220.97;;;11.11;100.00
32324;BME280;25666;44.350;9.222;2023-02-04T09:18:51;102223.16;;;11.23;100.00
32324;BME280;25666;44.350;9.222;2023-02-04T09:21:16;102222.53;;;11.26;100.00
32324;BME280;25666;44.350;9.222;2023-02-04T09:23:42;102223.81;;;11.20;100.00
32324;BME280;25666;44.350;9.222;2023-02-04T09:26:08;102217.75;;;11.18;100.00
32324;BME280;25666;44.350;9.222;2023-02-04T09:28:34;102214.94;;;11.18;100.00
32324;BME280;25666;44.350;9.222;2023-02-04T09:31:00;102214.13;;;11.17;100.00
32324;BME280;25666;44.350;9.222;2023-02-04T09:33:25;102218.88;;;11.17;100.00
32324;BME280;25666;44.350;9.222;2023-02-04T09:35:51;102220.69;;;11.21;100.00
32324;BME280;25666;44.350;9.222;2023-02-04T09:38:16;102216.00;;;11.31;100.00
32324;BME280;25666;44.350;9.222;2023-02-04T09:40:46;102228.28;;;11.29;100.00
32324;BME280;25666;44.350;9.222;2023-02-04T09:43:19;102240.47;;;11.34;100.00
32324;BME280;25666;44.350;9.222;2023-02-04T09:45:46;102222.25;;;11.36;100.00
32324;BME280;25666;44.350;9.222;2023-02-04T09:48:13;102207.41;;;11.49;100.00
32324;BME280;25666;44.350;9.222;2023-02-04T09:50:39;102219.53;;;11.53;100.00
32324;BME280;25666;44.350;9.222;2023-02-04T09:53:05;102226.81;;;11.63;100.00
32324;BME280;25666;44.350;9.222;2023-02-04T09:55:37;102238.91;;;11.80;100.00
32324;BME280;25666;44.350;9.222;2023-02-04T09:58:13;102232.22;;;11.90;100.00
32324;BME280;25666;44.350;9.222;2023-02-04T10:00:42;102240.75;;;11.94;100.00
32324;BME280;25666;44.350;9.222;2023-02-04T10:03:16;102234.88;;;12.04;100.00
32324;BME280;25666;44.350;9.222;2023-02-04T10:05:43;102234.41;;;12.10;100.00
32324;BME280;25666;44.350;9.222;2023-02-04T10:08:21;102244.91;;;12.13;100.00
32324;BME280;25666;44.350;9.222;2023-02-04T10:10:49;102242.13;;;12.22;100.00
32324;BME280;25666;44.350;9.222;2023-02-04T10:13:20;102240.03;;;12.27;100.00
32324;BME280;25666;44.350;9.222;2023-02-04T10:15:48;102239.38;;;12.30;100.00
32324;BME280;25666;44.350;9.222;2023-02-04T10:18:33;102234.94;;;12.29;100.00
32324;BME280;25666;44.350;9.222;2023-02-04T10:21:17;102242.00;;;12.27;100.00
32324;BME280;25666;44.350;9.222;2023-02-04T10:23:46;102231.81;;;12.31;100.00
32324;BME280;25666;44.350;9.222;2023-02-04T10:26:14;102230.19;;;12.39;100.00
32324;BME280;25666;44.350;9.222;2023-02-04T10:28:40;102249.06;;;12.42;100.00
32324;BME280;25666;44.350;9.222;2023-02-04T10:31:26;102238.91;;;12.46;100.00
32324;BME280;25666;44.350;9.222;2023-02-04T10:34:11;102222.31;;;12.49;100.00
32324;BME280;25666;44.350;9.222;2023-02-04T10:36:38;102226.91;;;12.45;100.00
32324;BME280;25666;44.350;9.222;2023-02-04T10:39:16;102243.34;;;12.47;100.00
32324;BME280;25666;44.350;9.222;2023-02-04T10:41:59;102235.13;;;12.50;100.00
32324;BME280;25666;44.350;9.222;2023-02-04T10:44:31;102242.84;;;12.53;100.00
32324;BME280;25666;44.350;9.222;2023-02-04T10:47:03;102226.91;;;12.54;100.00
32324;BME280;25666;44.350;9.222;2023-02-04T10:49:30;102228.38;;;12.60;100.00
32324;BME280;25666;44.350;9.222;2023-02-04T10:51:56;102234.97;;;12.64;100.00
32324;BME280;25666;44.350;9.222;2023-02-04T10:54:24;102230.38;;;12.68;100.00
32324;BME280;25666;44.350;9.222;2023-02-04T10:57:20;102222.31;;;12.66;100.00
32324;BME280;25666;44.350;9.222;2023-02-04T10:59:52;102221.97;;;12.59;100.00
32324;BME280;25666;44.350;9.222;2023-02-04T11:02:40;102221.97;;;12.59;100.00
32324;BME280;25666;44.350;9.222;2023-02-04T11:07:37;102210.81;;;12.59;100.00
32324;BME280;25666;44.350;9.222;2023-02-04T11:10:03;102209.50;;;12.57;100.00
32324;BME280;25666;44.350;9.222;2023-02-04T11:12:40;102223.81;;;12.55;100.00
32324;BME280;25666;44.350;9.222;2023-02-04T11:15:36;102207.84;;;12.47;100.00
32324;BME280;25666;44.350;9.222;2023-02-04T11:18:24;102215.09;;;12.48;100.00
32324;BME280;25666;44.350;9.222;2023-02-04T11:20:52;102205.56;;;12.49;100.00
32324;BME280;25666;44.350;9.222;2023-02-04T11:33:45;102229.38;;;12.64;100.00
32324;BME280;25666;44.350;9.222;2023-02-04T11:36:12;102221.34;;;12.71;100.00
32324;BME280;25666;44.350;9.222;2023-02-04T11:38:43;102232.16;;;12.72;100.00
32324;BME280;25666;44.350;9.222;2023-02-04T11:41:24;102238.09;;;12.71;100.00
32324;BME280;25666;44.350;9.222;2023-02-04T11:43:52;102234.47;;;12.79;100.00
32324;BME280;25666;44.350;9.222;2023-02-04T11:46:18;102228.41;;;12.85;100.00
32324;BME280;25666;44.350;9.222;2023-02-04T11:48:44;102223.63;;;12.86;100.00
32324;BME280;25666;44.350;9.222;2023-02-04T11:51:13;102219.03;;;12.81;100.00
32324;BME280;25666;44.350;9.222;2023-02-04T11:53:39;102225.94;;;12.75;100.00
32324;BME280;25666;44.350;9.222;2023-02-04T11:56:05;102211.31;;;12.70;100.00
32324;BME280;25666;44.350;9.222;2023-02-04T11:58:31;102214.28;;;12.73;100.00
32324;BME280;25666;44.350;9.222;2023-02-04T12:00:57;102204.91;;;12.69;100.00
32324;BME280;25666;44.350;9.222;2023-02-04T12:03:25;102200.78;;;12.75;100.00
32324;BME280;25666;44.350;9.222;2023-02-04T12:05:52;102210.81;;;12.76;100.00
32324;BME280;25666;44.350;9.222;2023-02-04T12:11:11;102199.16;;;12.74;100.00
32324;BME280;25666;44.350;9.222;2023-02-04T12:13:52;102199.31;;;12.61;100.00
32324;BME280;25666;44.350;9.222;2023-02-04T12:16:21;102184.00;;;12.75;100.00
32324;BME280;25666;44.350;9.222;2023-02-04T12:18:47;102190.94;;;12.78;100.00
32324;BME280;25666;44.350;9.222;2023-02-04T12:21:13;102206.22;;;12.80;100.00
32324;BME280;25666;44.350;9.222;2023-02-04T12:23:41;102192.09;;;12.77;100.00
32324;BME280;25666;44.350;9.222;2023-02-04T12:26:07;102195.34;;;12.79;100.00
32324;BME280;25666;44.350;9.222;2023-02-04T12:28:33;102193.38;;;12.79;100.00
32324;BME280;25666;44.350;9.222;2023-02-04T12:30:59;102189.78;;;12.79;100.00
32324;BME280;25666;44.350;9.222;2023-02-04T12:33:24;102184.53;;;12.77;100.00
32324;BME280;25666;44.350;9.222;2023-02-04T12:35:50;102183.88;;;12.80;100.00
32324;BME280;25666;44.350;9.222;2023-02-04T12:38:16;102185.84;;;12.80;100.00
32324;BME280;25666;44.350;9.222;2023-02-04T12:40:41;102187.97;;;12.83;100.00
32324;BME280;25666;44.350;9.222;2023-02-04T12:43:07;102190.75;;;12.83;100.00
32324;BME280;25666;44.350;9.222;2023-02-04T12:45:32;102182.69;;;12.81;100.00
32324;BME280;25666;44.350;9.222;2023-02-04T12:48:02;102178.44;;;12.84;100.00
32324;BME280;25666;44.350;9.222;2023-02-04T12:50:28;102166.91;;;12.85;100.00
32324;BME280;25666;44.350;9.222;2023-02-04T12:52:55;102171.00;;;12.88;100.00
32324;BME280;25666;44.350;9.222;2023-02-04T12:55:23;102168.06;;;12.84;100.00
32324;BME280;25666;44.350;9.222;2023-02-04T12:57:49;102181.53;;;12.91;100.00
32324;BME280;25666;44.350;9.222;2023-02-04T13:00:16;102166.09;;;12.94;100.00
32324;BME280;25666;44.350;9.222;2023-02-04T13:02:42;102170.19;;;12.96;100.00